Time;durP1;ratioP1;P1;durP2;ratioP2;P2;SDS_P1;SDS_P2;PMS_P1;PMS_P2;Temp;Humidity;BMP_temperature;BMP_pressure;BME280_temperature;BME280_humidity;BME280_pressure;Samples;Min_cycle;Max_cycle;Signal;HPM_P1;HPM_P2
2022/08/02 00:00:36;;;;;;;2.78;1.45;;;;;;;21.42;44.45;94501.78;4174949;28;20567;-48
2022/08/02 00:02:37;;;;;;;2.25;1.55;;;;;;;21.42;44.45;94503.63;4176969;28;20071;-49
2022/08/02 00:04:39;;;;;;;2.25;1.38;;;;;;;21.45;44.37;94493.31;4175508;28;20106;-47
2022/08/02 00:06:41;;;;;;;3.60;1.83;;;;;;;21.47;44.36;94493.09;4175789;28;20064;-46
2022/08/02 00:08:43;;;;;;;4.32;1.60;;;;;;;21.51;44.43;94496.09;4176213;28;20118;-49
2022/08/02 00:10:44;;;;;;;6.60;1.88;;;;;;;21.50;44.35;94495.28;4185460;28;20105;-49
2022/08/02 00:12:46;;;;;;;3.08;1.50;;;;;;;21.51;44.30;94496.94;4180156;28;20135;-52
2022/08/02 00:14:48;;;;;;;2.88;1.70;;;;;;;21.53;44.16;94497.50;4175429;28;20111;-49
2022/08/02 00:16:49;;;;;;;3.65;1.65;;;;;;;21.56;44.20;94502.38;4177273;28;20133;-47
2022/08/02 00:18:51;;;;;;;2.45;1.70;;;;;;;21.55;44.29;94494.59;4162502;28;20145;-48
2022/08/02 00:20:53;;;;;;;2.50;1.60;;;;;;;21.51;44.61;94491.59;4181492;28;20100;-51
2022/08/02 00:22:55;;;;;;;2.30;1.80;;;;;;;21.47;44.60;94487.78;4191976;28;20044;-47
2022/08/02 00:24:56;;;;;;;2.22;1.55;;;;;;;21.44;44.74;94491.69;4175683;28;20051;-48
2022/08/02 00:26:58;;;;;;;2.95;1.80;;;;;;;21.48;44.63;94497.38;4173568;28;20110;-48
2022/08/02 00:29:00;;;;;;;5.13;1.58;;;;;;;21.46;44.54;94499.47;4176176;28;20471;-48
2022/08/02 00:31:02;;;;;;;2.92;1.67;;;;;;;21.43;44.82;94490.06;4176458;28;20062;-49
2022/08/02 00:33:07;;;;;;;3.03;1.80;;;;;;;21.41;44.69;94491.31;4176469;28;20056;-46
2022/08/02 00:35:09;;;;;;;4.32;1.70;;;;;;;21.36;44.62;94491.19;4176418;28;20060;-51
2022/08/02 00:37:10;;;;;;;2.03;1.50;;;;;;;21.29;44.69;94488.63;4172462;28;20463;-45
2022/08/02 00:39:12;;;;;;;2.03;1.50;;;;;;;21.31;44.57;94486.56;4169017;28;20069;-52
2022/08/02 00:41:44;;;;;;;3.38;1.70;;;;;;;21.27;44.41;94486.22;4175414;28;20140;-50
2022/08/02 00:43:47;;;;;;;3.53;1.58;;;;;;;21.28;44.69;94484.38;4176401;28;20110;-49
2022/08/02 00:45:48;;;;;;;2.33;1.63;;;;;;;21.26;44.48;94487.25;4176178;28;20048;-47
2022/08/02 00:48:05;;;;;;;2.72;1.70;;;;;;;21.25;44.44;94484.81;4175441;28;20128;-53
2022/08/02 00:50:07;;;;;;;3.80;1.73;;;;;;;21.28;44.55;94473.72;4176083;28;20539;-51
2022/08/02 00:52:09;;;;;;;2.60;1.80;;;;;;;21.25;44.42;94482.97;4182519;28;20114;-47
2022/08/02 00:54:11;;;;;;;4.78;1.90;;;;;;;21.19;44.51;94478.56;4174686;28;20579;-47
2022/08/02 00:56:13;;;;;;;2.22;1.73;;;;;;;21.18;44.86;94484.94;4178609;28;20127;-47
2022/08/02 00:58:15;;;;;;;3.05;1.80;;;;;;;21.14;44.84;94480.28;4177328;28;20049;-46
2022/08/02 01:00:17;;;;;;;4.20;1.63;;;;;;;21.14;44.74;94480.28;4176353;28;20489;-49
2022/08/02 01:02:19;;;;;;;4.07;1.80;;;;;;;21.21;44.30;94473.81;4176101;28;20053;-48
2022/08/02 01:04:21;;;;;;;2.35;1.80;;;;;;;21.20;44.40;94477.50;4175235;28;20049;-51
2022/08/02 01:06:32;;;;;;;3.42;1.70;;;;;;;21.18;44.13;94474.28;4175886;28;20049;-52
2022/08/02 01:08:34;;;;;;;3.38;1.55;;;;;;;21.21;44.02;94470.34;4174192;28;20047;-57
2022/08/02 01:10:35;;;;;;;3.10;1.80;;;;;;;21.27;43.87;94472.91;4174263;28;20456;-50
2022/08/02 01:12:38;;;;;;;2.75;1.60;;;;;;;21.28;43.97;94471.03;4175266;28;20045;-48
2022/08/02 01:14:41;;;;;;;4.57;1.90;;;;;;;21.27;44.33;94474.72;4175955;28;20048;-47
2022/08/02 01:16:52;;;;;;;4.55;2.08;;;;;;;21.28;44.15;94477.19;4157225;28;20271;-49
2022/08/02 01:18:58;;;;;;;3.63;1.60;;;;;;;21.25;44.25;94476.81;4175764;28;20053;-48
2022/08/02 01:21:09;;;;;;;4.68;1.75;;;;;;;21.19;44.41;94467.13;4158110;28;20057;-48
2022/08/02 01:23:38;;;;;;;2.65;1.80;;;;;;;21.20;44.57;94469.53;4174407;28;20175;-51
2022/08/02 01:26:00;;;;;;;2.72;1.70;;;;;;;21.08;44.83;94468.72;4174195;28;20536;-49
2022/08/02 01:28:16;;;;;;;2.55;1.73;;;;;;;21.07;44.98;94470.56;4172785;28;20044;-48
2022/08/02 01:30:18;;;;;;;3.20;2.05;;;;;;;20.75;45.75;94467.38;4175848;28;20470;-49
2022/08/02 01:32:24;;;;;;;3.17;2.03;;;;;;;20.49;46.43;94470.38;4174072;28;20517;-50
2022/08/02 01:34:35;;;;;;;4.57;1.63;;;;;;;20.44;46.51;94471.88;4161225;28;20049;-48
2022/08/02 01:36:43;;;;;;;2.92;1.90;;;;;;;20.45;46.69;94472.69;4170776;28;20343;-46
2022/08/02 01:38:48;;;;;;;2.67;1.95;;;;;;;20.36;47.59;94474.84;4157748;28;20050;-48
2022/08/02 01:40:51;;;;;;;3.40;2.13;;;;;;;20.11;48.59;94480.31;4185724;28;20052;-48
2022/08/02 01:42:53;;;;;;;3.17;2.17;;;;;;;19.96;49.26;94480.69;4167655;28;20049;-46
2022/08/02 01:44:56;;;;;;;3.63;2.37;;;;;;;19.71;50.17;94478.09;4175580;28;20130;-46
2022/08/02 01:47:02;;;;;;;5.22;2.25;;;;;;;19.49;51.18;94480.34;4157500;28;20663;-48
2022/08/02 01:49:06;;;;;;;6.00;2.45;;;;;;;19.44;51.62;94482.81;4156680;28;20061;-47
2022/08/02 01:51:13;;;;;;;3.03;2.28;;;;;;;19.25;52.26;94471.34;4158272;28;20394;-47
2022/08/02 01:53:17;;;;;;;3.90;2.80;;;;;;;19.31;52.48;94483.75;4172162;28;20152;-47
2022/08/02 01:55:31;;;;;;;3.65;2.53;;;;;;;19.23;52.82;94482.19;4156822;28;20050;-47
2022/08/02 01:57:56;;;;;;;4.95;2.33;;;;;;;19.12;53.18;94476.78;4169834;28;20645;-50
2022/08/02 01:59:59;;;;;;;4.22;2.60;;;;;;;19.27;52.96;94477.25;4168439;28;20436;-47
2022/08/02 02:02:02;;;;;;;4.72;2.50;;;;;;;19.50;52.25;94483.78;4167930;28;20045;-47
2022/08/02 02:04:07;;;;;;;5.05;2.15;;;;;;;19.62;51.94;94485.50;4141492;28;20085;-48
2022/08/02 02:06:09;;;;;;;3.20;2.20;;;;;;;19.69;51.70;94493.41;4175637;28;20566;-47
2022/08/02 02:08:11;;;;;;;3.13;2.10;;;;;;;19.75;51.59;94489.91;4187487;28;20045;-48
2022/08/02 02:10:15;;;;;;;3.85;2.22;;;;;;;19.86;51.47;94492.88;4182024;28;20059;-45
2022/08/02 02:12:17;;;;;;;3.72;2.72;;;;;;;19.87;52.02;94497.94;4157389;28;20053;-46
2022/08/02 02:14:20;;;;;;;3.28;2.50;;;;;;;19.87;52.28;94492.63;4173743;28;20053;-47
2022/08/02 02:16:21;;;;;;;6.90;2.50;;;;;;;19.90;52.27;94494.84;4171318;28;20571;-50
2022/08/02 02:18:24;;;;;;;3.00;2.50;;;;;;;19.90;51.90;94494.84;4160870;28;20144;-48
2022/08/02 02:20:26;;;;;;;5.93;3.08;;;;;;;19.87;51.60;94487.31;4167134;28;20229;-47
2022/08/02 02:22:28;;;;;;;4.10;2.50;;;;;;;19.84;51.06;94493.06;4177593;28;20695;-47
2022/08/02 02:24:30;;;;;;;4.38;2.50;;;;;;;19.80;51.16;94489.22;4178163;28;20079;-48
2022/08/02 02:26:33;;;;;;;3.85;2.67;;;;;;;19.70;51.37;94491.59;4177353;28;20489;-49
2022/08/02 02:28:37;;;;;;;3.72;2.80;;;;;;;19.67;51.98;94489.34;4160453;28;20583;-46
2022/08/02 02:30:41;;;;;;;7.00;3.03;;;;;;;19.69;51.59;94488.09;4178136;28;20057;-50
2022/08/02 02:32:44;;;;;;;5.30;3.22;;;;;;;19.74;51.74;94490.91;4160258;28;20476;-48
2022/08/02 02:34:48;;;;;;;5.65;3.70;;;;;;;19.86;51.76;94493.66;4175971;28;20239;-51
2022/08/02 02:36:51;;;;;;;5.57;3.72;;;;;;;19.94;51.62;94493.38;4159324;28;20500;-45
2022/08/02 02:38:55;;;;;;;5.20;3.15;;;;;;;20.03;51.92;94496.56;4160106;28;20093;-50
2022/08/02 02:41:02;;;;;;;4.85;3.67;;;;;;;20.07;51.82;94486.25;4168696;28;20168;-51
2022/08/02 02:43:05;;;;;;;4.63;2.80;;;;;;;20.10;51.96;94486.63;4171128;28;20048;-51
2022/08/02 02:45:08;;;;;;;4.95;3.00;;;;;;;20.15;52.04;94493.94;4162995;28;20528;-49
2022/08/02 02:47:10;;;;;;;5.07;3.20;;;;;;;20.12;52.36;94487.22;4160061;28;20536;-48
2022/08/02 02:49:13;;;;;;;4.97;3.00;;;;;;;20.14;52.47;94487.81;4182680;28;20068;-47
2022/08/02 02:51:15;;;;;;;3.40;2.78;;;;;;;20.11;52.66;94485.63;4186467;28;20052;-48
2022/08/02 02:53:18;;;;;;;4.75;3.10;;;;;;;20.11;52.68;94482.13;4186963;28;20141;-47
2022/08/02 02:55:20;;;;;;;3.67;2.95;;;;;;;20.06;52.58;94482.78;4193483;28;20106;-50
2022/08/02 02:57:23;;;;;;;6.57;2.83;;;;;;;20.07;52.69;94484.44;4174490;28;20061;-47
2022/08/02 02:59:25;;;;;;;6.18;2.65;;;;;;;20.09;52.63;94484.19;4163313;28;20114;-48
2022/08/02 03:01:26;;;;;;;4.07;2.72;;;;;;;20.10;52.89;94485.84;4187682;28;20460;-46
2022/08/02 03:03:48;;;;;;;4.28;2.45;;;;;;;20.13;52.47;94496.00;4177881;28;20049;-48
2022/08/02 03:05:50;;;;;;;4.22;3.10;;;;;;;20.12;52.50;94487.22;4175532;28;20049;-47
2022/08/02 03:07:52;;;;;;;6.55;2.70;;;;;;;20.14;52.29;94487.81;4161126;28;20056;-48
2022/08/02 03:09:54;;;;;;;5.53;2.67;;;;;;;20.11;52.52;94490.09;4176976;28;20061;-47
2022/08/02 03:11:56;;;;;;;5.60;2.80;;;;;;;20.08;52.44;94485.25;4176844;28;20323;-49
2022/08/02 03:13:59;;;;;;;3.95;3.13;;;;;;;20.08;52.58;94485.25;4188066;28;20064;-47
2022/08/02 03:16:02;;;;;;;3.45;2.42;;;;;;;20.10;52.73;94486.63;4180634;28;20115;-51
2022/08/02 03:18:06;;;;;;;6.00;3.08;;;;;;;20.02;52.25;94487.75;4176946;28;20109;-49
2022/08/02 03:20:13;;;;;;;5.35;3.15;;;;;;;19.96;52.59;94491.31;4177192;28;20107;-49
2022/08/02 03:22:15;;;;;;;6.40;2.92;;;;;;;19.96;52.94;94490.47;4177080;28;20131;-51
2022/08/02 03:24:16;;;;;;;5.95;2.92;;;;;;;19.87;52.35;94491.81;4177641;28;20056;-50
2022/08/02 03:26:28;;;;;;;3.88;2.92;;;;;;;19.81;52.11;94489.03;4176574;28;20469;-49
2022/08/02 03:28:30;;;;;;;6.75;2.75;;;;;;;19.76;52.40;94488.84;4173661;28;20057;-52
2022/08/02 03:30:32;;;;;;;5.60;2.88;;;;;;;19.74;53.02;94496.22;4176664;28;20048;-48
2022/08/02 03:32:35;;;;;;;4.38;2.85;;;;;;;19.75;52.50;94489.09;4176001;28;20135;-48
2022/08/02 03:34:36;;;;;;;7.68;3.47;;;;;;;19.76;51.79;94488.03;4176667;28;20041;-46
2022/08/02 03:36:39;;;;;;;4.22;2.95;;;;;;;19.70;51.76;94491.59;4176723;28;20053;-50
2022/08/02 03:38:41;;;;;;;4.23;3.03;;;;;;;19.70;52.19;94487.06;4176364;28;20045;-48
2022/08/02 03:40:44;;;;;;;6.40;3.20;;;;;;;19.70;52.11;94496.91;4158790;28;20705;-45
2022/08/02 03:42:46;;;;;;;3.60;2.67;;;;;;;19.56;51.96;94496.19;4159630;28;20056;-46
2022/08/02 03:44:48;;;;;;;7.68;2.97;;;;;;;19.59;52.33;94495.75;4175063;28;20416;-46
2022/08/02 03:46:51;;;;;;;5.38;3.00;;;;;;;19.68;51.68;94499.78;4177056;28;20106;-46
2022/08/02 03:48:53;;;;;;;5.88;3.60;;;;;;;19.81;51.64;94498.81;4164263;28;20049;-49
2022/08/02 03:50:55;;;;;;;5.45;3.10;;;;;;;19.91;51.89;94499.13;4177231;28;20067;-45
2022/08/02 03:52:58;;;;;;;4.55;2.70;;;;;;;19.98;51.95;94505.19;4156282;28;20065;-49
2022/08/02 03:55:00;;;;;;;7.67;3.43;;;;;;;20.00;50.89;94503.13;4166782;28;20057;-48
2022/08/02 03:57:06;;;;;;;5.50;2.95;;;;;;;19.75;50.90;94507.69;4174250;28;20474;-48
2022/08/02 03:59:12;;;;;;;5.53;2.97;;;;;;;19.51;51.67;94507.50;4158918;28;20041;-44
2022/08/02 04:01:14;;;;;;;5.30;3.33;;;;;;;19.40;52.01;94510.84;4176874;28;20581;-47
2022/08/02 04:03:16;;;;;;;7.00;3.28;;;;;;;19.34;52.10;94522.38;4175922;28;20647;-47
2022/08/02 04:05:20;;;;;;;6.40;3.50;;;;;;;19.40;52.05;94522.31;4176711;28;20052;-47
2022/08/02 04:07:22;;;;;;;5.50;2.97;;;;;;;19.30;52.30;94518.50;4175622;28;20148;-47
2022/08/02 04:09:43;;;;;;;8.05;3.15;;;;;;;19.17;52.83;94532.72;4179208;28;20135;-46
2022/08/02 04:11:45;;;;;;;5.57;3.55;;;;;;;19.00;53.40;94535.88;4193298;28;20516;-49
2022/08/02 04:13:47;;;;;;;4.97;3.35;;;;;;;18.93;52.88;94540.44;4184167;28;20115;-49
2022/08/02 04:15:53;;;;;;;6.18;3.45;;;;;;;18.38;54.26;94543.56;4176397;28;20470;-46
2022/08/02 04:17:56;;;;;;;18.77;3.70;;;;;;;18.17;54.89;94541.19;4166017;28;20107;-48
2022/08/02 04:20:03;;;;;;;6.15;3.25;;;;;;;18.23;54.31;94537.72;4166396;28;20049;-47
2022/08/02 04:22:06;;;;;;;5.85;3.85;;;;;;;18.28;54.61;94542.38;4157489;28;20065;-46
2022/08/02 04:24:10;;;;;;;6.00;3.83;;;;;;;18.44;54.48;94547.22;4175156;28;20045;-48
2022/08/02 04:26:19;;;;;;;5.88;3.80;;;;;;;18.74;53.91;94546.66;4174336;28;20099;-45
2022/08/02 04:28:29;;;;;;;6.00;3.53;;;;;;;18.96;53.20;94540.00;4159693;28;20033;-45
2022/08/02 04:30:31;;;;;;;9.07;4.35;;;;;;;19.19;52.57;94534.13;4155876;28;20121;-46
2022/08/02 04:32:34;;;;;;;8.35;3.97;;;;;;;19.36;51.97;94536.22;4151127;28;20165;-46
2022/08/02 04:34:36;;;;;;;9.95;4.15;;;;;;;19.55;51.90;94535.25;4157795;28;20061;-50
2022/08/02 04:36:37;;;;;;;7.60;3.70;;;;;;;19.76;51.48;94535.88;4176394;28;20114;-49
2022/08/02 04:38:40;;;;;;;5.20;3.78;;;;;;;19.97;50.73;94537.31;4191199;28;20233;-49
2022/08/02 04:40:53;;;;;;;8.05;3.58;;;;;;;20.16;50.07;94536.28;4147535;28;20065;-50
2022/08/02 04:42:54;;;;;;;6.55;3.38;;;;;;;20.27;49.29;94540.03;4178648;28;20467;-47
2022/08/02 04:44:57;;;;;;;8.75;4.10;;;;;;;20.30;49.10;94536.91;4180086;28;20094;-46
2022/08/02 04:47:01;;;;;;;6.13;3.80;;;;;;;20.36;49.04;94533.38;4176676;28;20083;-48
2022/08/02 04:49:07;;;;;;;8.40;4.22;;;;;;;20.46;48.83;94531.00;4188370;28;20484;-50
2022/08/02 04:51:09;;;;;;;6.30;3.85;;;;;;;20.58;48.64;94535.59;4176281;28;20128;-46
2022/08/02 04:53:11;;;;;;;6.53;3.83;;;;;;;20.64;48.33;94532.03;4184920;28;20114;-53
2022/08/02 04:55:13;;;;;;;9.68;4.15;;;;;;;20.38;48.68;94535.81;4160504;28;20187;-51
2022/08/02 04:59:34;;;;;;;7.35;3.97;;;;;;;20.46;48.80;94536.31;4175492;28;20051;-48
2022/08/02 05:01:38;;;;;;;7.93;4.03;;;;;;;20.55;48.54;94538.69;4176153;28;20057;-51
2022/08/02 05:03:39;;;;;;;6.85;3.80;;;;;;;20.69;48.49;94540.13;4188384;28;20075;-49
2022/08/02 05:05:41;;;;;;;6.82;3.70;;;;;;;20.79;47.82;94543.06;4176822;28;20106;-46
2022/08/02 05:07:43;;;;;;;5.70;3.58;;;;;;;20.86;47.94;94538.50;4174214;28;20156;-49
2022/08/02 05:09:45;;;;;;;12.82;4.13;;;;;;;20.99;47.52;94541.97;4164547;28;20040;-47
2022/08/02 05:11:46;;;;;;;8.10;3.60;;;;;;;21.10;47.45;94543.03;4169709;28;20061;-50
2022/08/02 05:13:55;;;;;;;7.65;3.90;;;;;;;21.22;47.29;94542.03;4171555;28;20143;-52
2022/08/02 05:16:01;;;;;;;10.75;4.65;;;;;;;21.32;47.10;94544.16;4186404;28;20489;-52
2022/08/02 05:18:03;;;;;;;8.75;4.20;;;;;;;21.28;47.10;94548.31;4164287;28;20064;-52
2022/08/02 05:20:05;;;;;;;7.18;3.97;;;;;;;21.33;46.94;94548.41;4175085;28;20417;-46
2022/08/02 05:22:07;;;;;;;8.65;4.35;;;;;;;21.37;47.07;94546.94;4173907;28;20128;-55
2022/08/02 05:24:09;;;;;;;9.20;5.40;;;;;;;21.47;46.81;94543.72;4175320;28;20407;-50
2022/08/02 05:26:11;;;;;;;12.85;5.80;;;;;;;21.56;46.65;94553.00;4174101;28;20053;-47
2022/08/02 05:28:13;;;;;;;8.63;6.00;;;;;;;21.66;46.53;94550.59;4173110;28;20142;-57
2022/08/02 05:30:14;;;;;;;11.48;6.95;;;;;;;21.75;46.32;94559.03;4167901;28;20114;-51
2022/08/02 05:32:17;;;;;;;12.90;6.80;;;;;;;21.85;46.09;94553.94;4180854;28;20052;-45
2022/08/02 05:34:19;;;;;;;12.48;5.40;;;;;;;21.93;45.96;94560.78;4178305;28;20542;-48
2022/08/02 05:36:20;;;;;;;8.70;4.93;;;;;;;22.02;45.51;94558.56;4175655;28;20060;-49
2022/08/02 05:38:22;;;;;;;4.57;2.95;;;;;;;21.94;44.93;94557.06;4173824;28;20087;-46
2022/08/02 05:40:26;;;;;;;6.28;3.15;;;;;;;21.65;44.70;94556.94;4175357;28;20048;-46
2022/08/02 05:42:31;;;;;;;4.63;2.83;;;;;;;21.53;45.37;94563.31;4169181;28;20134;-52
2022/08/02 05:44:33;;;;;;;8.18;2.70;;;;;;;21.57;44.97;94564.47;4166448;28;20052;-46
2022/08/02 05:46:35;;;;;;;6.80;2.42;;;;;;;21.64;44.53;94563.31;4175083;28;20048;-49
2022/08/02 05:48:37;;;;;;;3.47;2.58;;;;;;;21.77;44.32;94564.97;4173878;28;20045;-47
2022/08/02 05:50:43;;;;;;;4.88;2.58;;;;;;;21.90;43.96;94563.91;4174800;28;20045;-49
2022/08/02 05:52:49;;;;;;;3.65;2.30;;;;;;;21.77;43.42;94561.47;4174801;28;20394;-47
2022/08/02 05:55:05;;;;;;;3.50;2.38;;;;;;;21.82;43.32;94570.41;4166362;28;20052;-48
2022/08/02 05:57:16;;;;;;;2.80;2.28;;;;;;;21.76;43.47;94563.31;4177144;28;20523;-50
2022/08/02 05:59:36;;;;;;;4.35;2.10;;;;;;;21.94;42.95;94559.75;4176225;28;20045;-53
2022/08/02 06:01:39;;;;;;;7.93;2.90;;;;;;;21.96;42.83;94563.00;4181320;28;20049;-50
2022/08/02 06:03:50;;;;;;;3.88;2.45;;;;;;;22.04;42.91;94572.47;4190828;28;20131;-49
2022/08/02 06:05:59;;;;;;;3.97;2.28;;;;;;;22.21;42.65;94578.72;4164661;28;20179;-45
2022/08/02 06:08:03;;;;;;;3.58;2.08;;;;;;;22.27;42.40;94574.34;4177668;28;20667;-48
2022/08/02 06:10:09;;;;;;;5.45;2.17;;;;;;;22.24;42.48;94580.13;4177905;28;20161;-50
2022/08/02 06:12:12;;;;;;;3.23;2.20;;;;;;;22.31;42.37;94578.16;4192379;28;20049;-49
2022/08/02 06:14:14;;;;;;;3.72;2.10;;;;;;;22.33;42.26;94583.25;4190119;28;20051;-49
2022/08/02 06:16:16;;;;;;;3.55;2.40;;;;;;;22.26;42.29;94584.22;4177714;28;20110;-51
2022/08/02 06:18:33;;;;;;;2.85;1.98;;;;;;;22.38;42.53;94588.72;4183485;28;20055;-48
2022/08/02 06:20:35;;;;;;;6.82;2.28;;;;;;;22.45;42.63;94590.19;4177675;28;20057;-48
2022/08/02 06:22:43;;;;;;;6.00;2.30;;;;;;;22.45;42.63;94598.19;4171454;28;20071;-50
2022/08/02 06:24:46;;;;;;;7.72;2.08;;;;;;;22.46;42.25;94589.16;4190663;28;20273;-53
2022/08/02 06:26:53;;;;;;;2.80;1.80;;;;;;;22.56;42.04;94593.06;4178600;28;20079;-47
2022/08/02 06:28:57;;;;;;;4.30;1.92;;;;;;;22.61;42.27;94595.84;4178655;28;20538;-52
2022/08/02 06:30:59;;;;;;;2.88;2.28;;;;;;;22.49;41.91;94604.69;4176765;28;20400;-47
2022/08/02 06:33:00;;;;;;;3.47;2.03;;;;;;;22.52;42.11;94586.56;4153505;28;20123;-49
2022/08/02 06:35:04;;;;;;;2.88;2.10;;;;;;;22.52;41.88;94611.44;4165980;28;20049;-47
2022/08/02 06:37:17;;;;;;;3.28;1.92;;;;;;;22.43;42.03;94608.28;4176460;28;20437;-46
2022/08/02 06:39:26;;;;;;;3.80;2.20;;;;;;;22.44;42.10;94609.13;4177357;28;20052;-45
2022/08/02 06:41:31;;;;;;;2.90;1.80;;;;;;;22.60;41.81;94610.25;4177143;28;20061;-47
2022/08/02 06:43:44;;;;;;;3.72;1.98;;;;;;;22.73;41.95;94614.50;4160539;28;20053;-51
2022/08/02 06:45:46;;;;;;;3.65;1.65;;;;;;;22.75;41.80;94607.88;4186083;28;20065;-52
2022/08/02 06:47:48;;;;;;;4.53;2.13;;;;;;;22.83;41.96;94609.38;4170202;28;20108;-47
2022/08/02 06:49:49;;;;;;;3.80;1.83;;;;;;;22.92;41.34;94607.13;4159951;28;20107;-47
2022/08/02 06:51:55;;;;;;;2.78;2.10;;;;;;;22.86;41.35;94607.00;4186805;28;20068;-50
2022/08/02 06:53:56;;;;;;;2.80;1.77;;;;;;;22.82;41.26;94603.22;4165394;28;20049;-44
2022/08/02 06:55:58;;;;;;;6.40;2.20;;;;;;;22.82;41.79;94608.56;4188541;28;20103;-45
2022/08/02 06:58:00;;;;;;;4.68;2.10;;;;;;;22.80;41.85;94605.31;4177946;28;20111;-47
2022/08/02 07:00:07;;;;;;;3.42;2.17;;;;;;;22.79;41.64;94603.69;4177661;28;20401;-50
2022/08/02 07:02:10;;;;;;;2.83;1.77;;;;;;;22.75;41.47;94604.41;4178089;28;20490;-47
2022/08/02 07:04:12;;;;;;;4.93;2.40;;;;;;;22.79;41.91;94603.69;4164182;28;20136;-50
2022/08/02 07:06:17;;;;;;;5.03;1.67;;;;;;;22.80;42.13;94605.31;4177037;28;20469;-48
2022/08/02 07:08:20;;;;;;;2.97;2.25;;;;;;;22.90;42.47;94594.00;4167276;28;20462;-48
2022/08/02 07:10:21;;;;;;;4.78;2.05;;;;;;;23.05;42.02;94601.53;4176772;28;20214;-47
2022/08/02 07:12:23;;;;;;;3.45;1.70;;;;;;;23.24;41.69;94600.28;4188984;28;20103;-49
2022/08/02 07:14:25;;;;;;;2.75;1.90;;;;;;;23.22;41.72;94601.56;4180066;28;20424;-48
2022/08/02 07:16:27;;;;;;;3.63;2.00;;;;;;;23.21;42.11;94599.94;4164183;28;20049;-47
2022/08/02 07:18:29;;;;;;;3.33;1.90;;;;;;;23.18;41.86;94597.75;4178087;28;20454;-50
2022/08/02 07:20:31;;;;;;;3.50;1.90;;;;;;;23.22;42.25;94599.69;4176453;28;20045;-48
2022/08/02 07:22:33;;;;;;;2.45;1.75;;;;;;;23.20;42.00;94596.47;4176866;28;20116;-49
2022/08/02 07:24:35;;;;;;;4.55;2.58;;;;;;;23.10;41.74;94601.59;4175690;28;20126;-47
2022/08/02 07:26:36;;;;;;;14.55;6.45;;;;;;;23.02;42.57;94612.72;4177480;28;20055;-45
2022/08/02 07:28:58;;;;;;;7.32;3.13;;;;;;;23.18;42.30;94598.56;4180335;28;20081;-47
2022/08/02 07:31:00;;;;;;;11.95;4.95;;;;;;;23.35;41.94;94590.56;4171267;28;20049;-48
2022/08/02 07:33:02;;;;;;;9.80;3.30;;;;;;;23.42;42.26;94590.41;4174777;28;20045;-47
2022/08/02 07:35:05;;;;;;;5.35;2.30;;;;;;;23.60;41.28;94595.53;4165423;28;20049;-49
2022/08/02 07:37:08;;;;;;;4.05;1.80;;;;;;;23.75;41.02;94596.81;4176704;28;20207;-49
2022/08/02 07:39:30;;;;;;;4.13;1.60;;;;;;;23.82;41.04;94584.94;4161176;28;20049;-50
2022/08/02 07:41:34;;;;;;;3.15;1.67;;;;;;;23.87;40.68;94589.56;4181759;28;20224;-47
2022/08/02 07:43:35;;;;;;;8.85;5.07;;;;;;;23.75;41.43;94592.31;4175800;28;20102;-47
2022/08/02 07:45:37;;;;;;;18.58;9.95;;;;;;;23.54;41.34;94598.38;4177447;28;20508;-46
2022/08/02 07:47:57;;;;;;;4.90;2.70;;;;;;;23.49;41.35;94591.09;4176772;28;20448;-47
2022/08/02 07:49:59;;;;;;;4.13;2.35;;;;;;;23.66;41.25;94591.91;4177031;28;20049;-48
2022/08/02 07:52:01;;;;;;;4.47;1.98;;;;;;;23.86;40.85;94582.59;4174733;28;20361;-50
2022/08/02 07:54:02;;;;;;;3.55;1.60;;;;;;;24.09;40.31;94579.72;4176927;28;20479;-47
2022/08/02 07:56:05;;;;;;;4.57;1.67;;;;;;;24.35;40.11;94576.56;4175229;28;20060;-45
2022/08/02 07:58:08;;;;;;;3.33;2.33;;;;;;;24.32;39.62;94588.59;4171141;28;20057;-50
2022/08/02 08:00:15;;;;;;;5.53;1.70;;;;;;;24.19;39.62;94583.59;4177807;28;20045;-47
2022/08/02 08:02:17;;;;;;;2.78;1.70;;;;;;;24.25;39.92;94580.75;4158716;28;20111;-48
2022/08/02 08:04:19;;;;;;;2.97;1.52;;;;;;;24.33;39.81;94579.50;4186644;28;20053;-48
2022/08/02 08:06:21;;;;;;;2.47;1.10;;;;;;;24.55;39.27;94576.06;4172086;28;20503;-50
2022/08/02 08:08:29;;;;;;;6.80;1.40;;;;;;;24.61;38.52;94581.22;4184961;28;20433;-47
2022/08/02 08:10:31;;;;;;;1.85;1.05;;;;;;;24.81;38.23;94574.50;4184584;28;20057;-48
2022/08/02 08:12:33;;;;;;;2.28;1.40;;;;;;;25.02;38.83;94575.53;4193114;28;20125;-49
2022/08/02 08:14:35;;;;;;;2.65;1.60;;;;;;;24.70;38.70;94590.44;4191228;28;20056;-51
2022/08/02 08:16:36;;;;;;;4.43;1.55;;;;;;;24.10;39.51;94585.88;4180497;28;20044;-52
2022/08/02 08:18:38;;;;;;;2.53;1.63;;;;;;;24.41;39.37;94580.94;4185518;28;20048;-46
2022/08/02 08:20:40;;;;;;;2.97;1.70;;;;;;;24.59;39.46;94582.53;4176505;28;20049;-49
2022/08/02 08:22:42;;;;;;;4.22;1.67;;;;;;;24.90;38.86;94579.13;4175654;28;20497;-49
2022/08/02 08:24:44;;;;;;;3.00;1.70;;;;;;;25.19;38.30;94576.25;4175172;28;20631;-49
2022/08/02 08:26:45;;;;;;;2.47;1.52;;;;;;;25.45;37.96;94574.63;4175877;28;20293;-52
2022/08/02 08:28:47;;;;;;;3.17;1.20;;;;;;;25.66;37.78;94570.25;4176743;28;20048;-51
2022/08/02 08:30:49;;;;;;;7.80;2.00;;;;;;;25.65;37.28;94568.63;4176229;28;20401;-50
2022/08/02 08:32:51;;;;;;;2.70;1.35;;;;;;;25.41;37.78;94575.41;4171862;28;20044;-47
2022/08/02 08:34:52;;;;;;;3.88;1.75;;;;;;;24.66;39.53;94575.94;4170656;28;20076;-46
2022/08/02 08:36:54;;;;;;;3.67;1.55;;;;;;;24.48;39.45;94576.22;4175527;28;20071;-49
2022/08/02 08:38:56;;;;;;;3.13;1.77;;;;;;;24.51;39.37;94573.06;4175929;28;20056;-51
2022/08/02 08:40:57;;;;;;;4.43;1.85;;;;;;;24.60;39.10;94576.91;4175556;28;20045;-50
2022/08/02 08:42:59;;;;;;;4.35;1.55;;;;;;;24.54;39.30;94580.59;4175496;28;20053;-50
2022/08/02 08:45:01;;;;;;;4.63;1.67;;;;;;;24.48;39.34;94574.38;4175879;28;20057;-48
2022/08/02 08:47:04;;;;;;;3.40;1.48;;;;;;;24.65;39.38;94582.34;4190741;28;20052;-47
2022/08/02 08:49:24;;;;;;;2.22;1.42;;;;;;;24.63;39.09;94571.09;4187980;28;20497;-46
2022/08/02 08:51:30;;;;;;;4.53;1.48;;;;;;;24.94;38.67;94572.22;4185258;28;20049;-49
2022/08/02 08:53:38;;;;;;;2.60;1.45;;;;;;;24.91;38.75;94570.06;4166289;28;20559;-47
2022/08/02 08:55:42;;;;;;;4.18;1.50;;;;;;;25.14;38.17;94562.78;4161312;28;20053;-47
2022/08/02 08:57:44;;;;;;;2.92;1.30;;;;;;;25.44;37.81;94564.16;4175097;28;20095;-48
2022/08/02 08:59:46;;;;;;;3.33;1.50;;;;;;;25.73;37.46;94572.72;4174912;28;20424;-47
2022/08/02 09:01:49;;;;;;;4.68;1.60;;;;;;;25.99;36.95;94573.72;4174307;28;20092;-48
2022/08/02 09:03:52;;;;;;;1.92;1.30;;;;;;;25.72;36.83;94574.56;4175995;28;20061;-48
2022/08/02 09:05:56;;;;;;;1.95;1.35;;;;;;;25.57;37.21;94579.81;4159129;28;20092;-49
2022/08/02 09:07:58;;;;;;;3.38;1.40;;;;;;;25.33;37.13;94574.78;4163969;28;21218;-50
2022/08/02 09:10:00;;;;;;;3.70;1.48;;;;;;;25.19;37.54;94580.75;4175073;28;20041;-49
2022/08/02 09:12:15;;;;;;;1.95;1.08;;;;;;;25.46;36.99;94575.44;4175687;28;20049;-48
2022/08/02 09:14:28;;;;;;;2.75;1.60;;;;;;;25.47;36.79;94575.19;4174720;28;20462;-50
2022/08/02 09:16:31;;;;;;;2.10;1.33;;;;;;;25.73;36.17;94567.34;4184956;28;20516;-49
2022/08/02 09:18:42;;;;;;;1.42;1.08;;;;;;;26.10;35.46;94564.66;4165011;28;20053;-48
2022/08/02 09:20:52;;;;;;;2.63;1.23;;;;;;;26.43;35.41;94564.56;4166504;28;20059;-50
2022/08/02 09:23:10;;;;;;;3.35;1.17;;;;;;;26.29;35.29;94567.72;4159318;28;20095;-48
2022/08/02 09:25:14;;;;;;;2.28;1.33;;;;;;;26.09;35.37;94565.75;4170262;28;20045;-46
2022/08/02 09:27:18;;;;;;;2.03;1.23;;;;;;;26.15;35.66;94569.25;4160614;28;20505;-52
2022/08/02 09:29:22;;;;;;;2.28;1.30;;;;;;;26.05;34.93;94564.66;4169636;28;20052;-50
2022/08/02 09:31:24;;;;;;;6.05;1.15;;;;;;;25.70;35.71;94565.16;4174851;28;20052;-46
2022/08/02 09:33:27;;;;;;;1.50;1.00;;;;;;;25.80;35.46;94553.72;4166008;28;20444;-50
2022/08/02 09:35:39;;;;;;;1.73;1.13;;;;;;;25.92;35.84;94557.00;4168641;28;20094;-47
2022/08/02 09:38:19;;;;;;;3.08;1.33;;;;;;;26.35;35.28;94557.81;4173825;28;20112;-47
2022/08/02 09:40:34;;;;;;;1.38;1.00;;;;;;;26.62;34.85;94554.22;4175055;28;20625;-48
2022/08/02 09:42:36;;;;;;;1.80;1.17;;;;;;;26.91;34.28;94558.06;4168845;28;20543;-48
2022/08/02 09:44:38;;;;;;;10.75;1.50;;;;;;;27.09;34.83;94559.44;4163426;28;20061;-52
2022/08/02 09:46:44;;;;;;;4.15;1.30;;;;;;;27.18;34.31;94551.66;4166402;28;20049;-48
2022/08/02 09:48:52;;;;;;;1.30;1.00;;;;;;;26.86;33.87;94560.72;4174907;28;20462;-47